sensor_id;sensor_type;location;lat;lon;timestamp;temperature;humidity
612;DHT22;293;53.888;11.464;2024-01-30T00:02:21;5.00;99.90
612;DHT22;293;53.888;11.464;2024-01-30T00:04:48;5.00;99.90
612;DHT22;293;53.888;11.464;2024-01-30T00:07:15;4.90;99.90
612;DHT22;293;53.888;11.464;2024-01-30T00:09:43;5.00;99.90
612;DHT22;293;53.888;11.464;2024-01-30T00:12:12;4.90;99.90
612;DHT22;293;53.888;11.464;2024-01-30T00:14:41;5.00;99.90
612;DHT22;293;53.888;11.464;2024-01-30T00:17:08;5.10;99.90
612;DHT22;293;53.888;11.464;2024-01-30T00:19:35;4.90;99.90
612;DHT22;293;53.888;11.464;2024-01-30T00:22:02;4.90;99.90
612;DHT22;293;53.888;11.464;2024-01-30T00:24:29;4.90;99.90
612;DHT22;293;53.888;11.464;2024-01-30T00:26:57;4.90;99.90
612;DHT22;293;53.888;11.464;2024-01-30T00:29:24;4.90;99.90
612;DHT22;293;53.888;11.464;2024-01-30T00:31:55;4.90;99.90
612;DHT22;293;53.888;11.464;2024-01-30T00:34:22;4.80;99.90
612;DHT22;293;53.888;11.464;2024-01-30T00:36:49;4.80;99.90
612;DHT22;293;53.888;11.464;2024-01-30T00:39:16;4.80;99.90
612;DHT22;293;53.888;11.464;2024-01-30T00:41:45;4.80;99.90
612;DHT22;293;53.888;11.464;2024-01-30T00:44:13;4.80;99.90
612;DHT22;293;53.888;11.464;2024-01-30T00:46:40;4.70;99.90
612;DHT22;293;53.888;11.464;2024-01-30T00:49:07;4.70;99.90
612;DHT22;293;53.888;11.464;2024-01-30T00:51:34;4.70;99.90
612;DHT22;293;53.888;11.464;2024-01-30T00:54:00;4.70;99.90
612;DHT22;293;53.888;11.464;2024-01-30T00:56:28;4.70;99.90
612;DHT22;293;53.888;11.464;2024-01-30T00:58:56;4.60;99.90
612;DHT22;293;53.888;11.464;2024-01-30T01:01:24;4.60;99.90
612;DHT22;293;53.888;11.464;2024-01-30T01:03:51;4.60;99.90
612;DHT22;293;53.888;11.464;2024-01-30T01:06:17;4.50;99.90
612;DHT22;293;53.888;11.464;2024-01-30T01:08:45;4.50;99.90
612;DHT22;293;53.888;11.464;2024-01-30T01:11:12;4.50;99.90
612;DHT22;293;53.888;11.464;2024-01-30T01:13:39;4.50;99.90
612;DHT22;293;53.888;11.464;2024-01-30T01:16:06;4.40;99.90
612;DHT22;293;53.888;11.464;2024-01-30T01:18:34;4.40;99.90
612;DHT22;293;53.888;11.464;2024-01-30T01:21:01;4.40;99.90
612;DHT22;293;53.888;11.464;2024-01-30T01:23:28;4.40;99.90
612;DHT22;293;53.888;11.464;2024-01-30T01:25:54;4.40;99.90
612;DHT22;293;53.888;11.464;2024-01-30T01:28:21;4.40;99.90
612;DHT22;293;53.888;11.464;2024-01-30T01:30:48;4.40;99.90
612;DHT22;293;53.888;11.464;2024-01-30T01:33:15;4.40;99.90
612;DHT22;293;53.888;11.464;2024-01-30T01:35:44;4.30;99.90
612;DHT22;293;53.888;11.464;2024-01-30T01:38:11;4.40;99.90
612;DHT22;293;53.888;11.464;2024-01-30T01:40:38;4.40;99.90
612;DHT22;293;53.888;11.464;2024-01-30T01:43:06;4.40;99.90
612;DHT22;293;53.888;11.464;2024-01-30T01:45:33;4.40;99.90
612;DHT22;293;53.888;11.464;2024-01-30T01:48:00;4.40;99.90
612;DHT22;293;53.888;11.464;2024-01-30T01:50:27;4.40;99.90
612;DHT22;293;53.888;11.464;2024-01-30T01:52:55;4.50;99.90
612;DHT22;293;53.888;11.464;2024-01-30T01:55:23;4.50;99.90
612;DHT22;293;53.888;11.464;2024-01-30T01:57:53;4.50;99.90
612;DHT22;293;53.888;11.464;2024-01-30T02:00:20;4.50;99.90
612;DHT22;293;53.888;11.464;2024-01-30T02:02:47;4.60;99.90
612;DHT22;293;53.888;11.464;2024-01-30T02:05:14;4.60;99.90
612;DHT22;293;53.888;11.464;2024-01-30T02:07:42;4.70;99.90
612;DHT22;293;53.888;11.464;2024-01-30T02:10:13;4.80;99.90
612;DHT22;293;53.888;11.464;2024-01-30T02:12:40;4.90;99.90
612;DHT22;293;53.888;11.464;2024-01-30T02:15:07;5.00;99.90
612;DHT22;293;53.888;11.464;2024-01-30T02:17:34;5.00;99.90
612;DHT22;293;53.888;11.464;2024-01-30T02:20:01;5.10;99.90
612;DHT22;293;53.888;11.464;2024-01-30T02:22:30;5.10;99.90
612;DHT22;293;53.888;11.464;2024-01-30T02:24:58;5.20;99.90
612;DHT22;293;53.888;11.464;2024-01-30T02:27:25;5.30;99.90
612;DHT22;293;53.888;11.464;2024-01-30T02:29:52;5.30;99.90
612;DHT22;293;53.888;11.464;2024-01-30T02:32:19;5.40;99.90
612;DHT22;293;53.888;11.464;2024-01-30T02:34:46;5.50;99.90
612;DHT22;293;53.888;11.464;2024-01-30T02:37:13;5.50;99.90
612;DHT22;293;53.888;11.464;2024-01-30T02:39:41;5.50;99.90
612;DHT22;293;53.888;11.464;2024-01-30T02:42:08;5.60;99.90
612;DHT22;293;53.888;11.464;2024-01-30T02:44:34;5.60;99.90
612;DHT22;293;53.888;11.464;2024-01-30T02:47:01;5.70;99.90
612;DHT22;293;53.888;11.464;2024-01-30T02:49:28;5.70;99.90
612;DHT22;293;53.888;11.464;2024-01-30T02:51:55;5.70;99.90
612;DHT22;293;53.888;11.464;2024-01-30T02:54:22;5.70;99.90
612;DHT22;293;53.888;11.464;2024-01-30T02:56:50;5.80;99.90
612;DHT22;293;53.888;11.464;2024-01-30T02:59:17;5.80;99.90
612;DHT22;293;53.888;11.464;2024-01-30T03:01:44;5.80;99.90
612;DHT22;293;53.888;11.464;2024-01-30T03:04:12;5.90;99.90
612;DHT22;293;53.888;11.464;2024-01-30T03:06:39;5.90;99.90
612;DHT22;293;53.888;11.464;2024-01-30T03:09:05;5.90;99.90
612;DHT22;293;53.888;11.464;2024-01-30T03:11:32;5.90;99.90
612;DHT22;293;53.888;11.464;2024-01-30T03:14:00;6.00;99.90
612;DHT22;293;53.888;11.464;2024-01-30T03:16:27;6.00;99.90
612;DHT22;293;53.888;11.464;2024-01-30T03:18:54;6.00;99.90
612;DHT22;293;53.888;11.464;2024-01-30T03:21:21;6.00;99.90
612;DHT22;293;53.888;11.464;2024-01-30T03:23:48;6.00;99.90
612;DHT22;293;53.888;11.464;2024-01-30T03:26:15;5.90;99.90
612;DHT22;293;53.888;11.464;2024-01-30T03:28:42;5.80;99.90
612;DHT22;293;53.888;11.464;2024-01-30T03:31:10;5.80;99.90
612;DHT22;293;53.888;11.464;2024-01-30T03:33:37;5.70;99.90
612;DHT22;293;53.888;11.464;2024-01-30T03:36:05;5.70;99.90
612;DHT22;293;53.888;11.464;2024-01-30T03:38:32;5.60;99.90
612;DHT22;293;53.888;11.464;2024-01-30T03:40:59;5.50;99.90
612;DHT22;293;53.888;11.464;2024-01-30T03:43:26;5.50;99.90
612;DHT22;293;53.888;11.464;2024-01-30T03:45:53;5.50;99.90
612;DHT22;293;53.888;11.464;2024-01-30T03:48:21;5.40;99.90
612;DHT22;293;53.888;11.464;2024-01-30T03:50:48;5.40;99.90
612;DHT22;293;53.888;11.464;2024-01-30T03:53:15;5.40;99.90
612;DHT22;293;53.888;11.464;2024-01-30T03:55:42;5.40;99.90
612;DHT22;293;53.888;11.464;2024-01-30T03:58:09;5.40;99.90
612;DHT22;293;53.888;11.464;2024-01-30T04:00:36;5.30;99.90
612;DHT22;293;53.888;11.464;2024-01-30T04:03:03;5.30;99.90
612;DHT22;293;53.888;11.464;2024-01-30T04:05:31;5.20;99.90
612;DHT22;293;53.888;11.464;2024-01-30T04:07:58;5.20;99.90
612;DHT22;293;53.888;11.464;2024-01-30T04:10:25;5.20;99.90
612;DHT22;293;53.888;11.464;2024-01-30T04:12:52;5.20;99.90
612;DHT22;293;53.888;11.464;2024-01-30T04:15:19;5.20;99.90
612;DHT22;293;53.888;11.464;2024-01-30T04:17:46;5.20;99.90
612;DHT22;293;53.888;11.464;2024-01-30T04:20:14;5.20;99.90
612;DHT22;293;53.888;11.464;2024-01-30T04:22:44;5.20;99.90
612;DHT22;293;53.888;11.464;2024-01-30T04:25:11;5.20;99.90
612;DHT22;293;53.888;11.464;2024-01-30T04:27:38;5.10;99.90
612;DHT22;293;53.888;11.464;2024-01-30T04:30:06;5.10;99.90
612;DHT22;293;53.888;11.464;2024-01-30T04:32:33;5.00;99.90
612;DHT22;293;53.888;11.464;2024-01-30T04:35:00;5.00;99.90
612;DHT22;293;53.888;11.464;2024-01-30T04:37:26;4.90;99.90
612;DHT22;293;53.888;11.464;2024-01-30T04:39:55;4.80;99.90
612;DHT22;293;53.888;11.464;2024-01-30T04:42:21;4.90;99.90
612;DHT22;293;53.888;11.464;2024-01-30T04:44:49;4.80;99.90
612;DHT22;293;53.888;11.464;2024-01-30T04:47:15;4.80;99.90
612;DHT22;293;53.888;11.464;2024-01-30T04:49:42;4.80;99.90
612;DHT22;293;53.888;11.464;2024-01-30T04:52:09;4.80;99.90
612;DHT22;293;53.888;11.464;2024-01-30T04:54:36;4.80;99.90
612;DHT22;293;53.888;11.464;2024-01-30T04:57:05;4.80;99.90
612;DHT22;293;53.888;11.464;2024-01-30T04:59:35;4.80;99.90
612;DHT22;293;53.888;11.464;2024-01-30T05:02:02;4.80;99.90
612;DHT22;293;53.888;11.464;2024-01-30T05:04:29;4.80;99.90
612;DHT22;293;53.888;11.464;2024-01-30T05:06:56;4.80;99.90
612;DHT22;293;53.888;11.464;2024-01-30T05:09:22;4.80;99.90
612;DHT22;293;53.888;11.464;2024-01-30T05:11:49;4.70;99.90
612;DHT22;293;53.888;11.464;2024-01-30T05:14:17;4.80;99.90
612;DHT22;293;53.888;11.464;2024-01-30T05:16:45;4.70;99.90
612;DHT22;293;53.888;11.464;2024-01-30T05:19:12;4.70;99.90
612;DHT22;293;53.888;11.464;2024-01-30T05:21:39;4.70;99.90
612;DHT22;293;53.888;11.464;2024-01-30T05:24:06;4.70;99.90
612;DHT22;293;53.888;11.464;2024-01-30T05:26:35;4.70;99.90
612;DHT22;293;53.888;11.464;2024-01-30T05:29:02;4.70;99.90
612;DHT22;293;53.888;11.464;2024-01-30T05:31:30;4.70;99.90
612;DHT22;293;53.888;11.464;2024-01-30T05:33:57;4.70;99.90
612;DHT22;293;53.888;11.464;2024-01-30T05:36:24;4.60;99.90
612;DHT22;293;53.888;11.464;2024-01-30T05:38:51;4.60;99.90
612;DHT22;293;53.888;11.464;2024-01-30T05:41:18;4.50;99.90
612;DHT22;293;53.888;11.464;2024-01-30T05:43:46;4.50;99.90
612;DHT22;293;53.888;11.464;2024-01-30T05:46:13;4.50;99.90
612;DHT22;293;53.888;11.464;2024-01-30T05:48:41;4.40;99.90
612;DHT22;293;53.888;11.464;2024-01-30T05:51:08;4.40;99.90
612;DHT22;293;53.888;11.464;2024-01-30T05:53:35;4.40;99.90
612;DHT22;293;53.888;11.464;2024-01-30T05:56:02;4.40;99.90
612;DHT22;293;53.888;11.464;2024-01-30T05:58:29;4.30;99.90
612;DHT22;293;53.888;11.464;2024-01-30T06:00:56;4.30;99.90
612;DHT22;293;53.888;11.464;2024-01-30T06:03:24;4.30;99.90
612;DHT22;293;53.888;11.464;2024-01-30T06:05:52;4.30;99.90
612;DHT22;293;53.888;11.464;2024-01-30T06:08:19;4.30;99.90
612;DHT22;293;53.888;11.464;2024-01-30T06:10:46;4.20;99.90
612;DHT22;293;53.888;11.464;2024-01-30T06:13:13;4.20;99.90
612;DHT22;293;53.888;11.464;2024-01-30T06:15:40;4.20;99.90
612;DHT22;293;53.888;11.464;2024-01-30T06:18:07;4.20;99.90
612;DHT22;293;53.888;11.464;2024-01-30T06:20:34;4.20;99.90
612;DHT22;293;53.888;11.464;2024-01-30T06:23:03;4.20;99.90
612;DHT22;293;53.888;11.464;2024-01-30T06:25:30;4.20;99.90
612;DHT22;293;53.888;11.464;2024-01-30T06:27:57;4.20;99.90
612;DHT22;293;53.888;11.464;2024-01-30T06:30:24;4.20;99.90
612;DHT22;293;53.888;11.464;2024-01-30T06:32:51;4.20;99.90
612;DHT22;293;53.888;11.464;2024-01-30T06:35:18;4.10;99.90
612;DHT22;293;53.888;11.464;2024-01-30T06:37:44;4.10;99.90
612;DHT22;293;53.888;11.464;2024-01-30T06:40:13;4.00;99.90
612;DHT22;293;53.888;11.464;2024-01-30T06:42:40;4.10;99.90
612;DHT22;293;53.888;11.464;2024-01-30T06:45:08;4.10;99.90
612;DHT22;293;53.888;11.464;2024-01-30T06:47:35;4.10;99.90
612;DHT22;293;53.888;11.464;2024-01-30T06:50:01;4.10;99.90
612;DHT22;293;53.888;11.464;2024-01-30T06:52:29;4.20;99.90
612;DHT22;293;53.888;11.464;2024-01-30T06:54:55;4.30;99.90
612;DHT22;293;53.888;11.464;2024-01-30T06:57:24;4.30;99.90
612;DHT22;293;53.888;11.464;2024-01-30T06:59:55;4.30;99.90
612;DHT22;293;53.888;11.464;2024-01-30T07:02:22;4.40;99.90
612;DHT22;293;53.888;11.464;2024-01-30T07:04:48;4.40;99.90
612;DHT22;293;53.888;11.464;2024-01-30T07:07:16;4.50;99.90
612;DHT22;293;53.888;11.464;2024-01-30T07:09:43;4.50;99.90
612;DHT22;293;53.888;11.464;2024-01-30T07:12:10;4.50;99.90
612;DHT22;293;53.888;11.464;2024-01-30T07:14:38;4.60;99.90
612;DHT22;293;53.888;11.464;2024-01-30T07:17:05;4.60;99.90
612;DHT22;293;53.888;11.464;2024-01-30T07:19:33;4.60;99.90
612;DHT22;293;53.888;11.464;2024-01-30T07:22:00;4.70;99.90
612;DHT22;293;53.888;11.464;2024-01-30T07:24:27;4.70;99.90
612;DHT22;293;53.888;11.464;2024-01-30T07:26:54;4.70;99.90
612;DHT22;293;53.888;11.464;2024-01-30T07:29:21;4.70;99.90
612;DHT22;293;53.888;11.464;2024-01-30T07:31:49;4.70;99.90
612;DHT22;293;53.888;11.464;2024-01-30T07:34:16;4.80;99.90
612;DHT22;293;53.888;11.464;2024-01-30T07:36:43;4.80;99.90
612;DHT22;293;53.888;11.464;2024-01-30T07:39:10;4.80;99.90
612;DHT22;293;53.888;11.464;2024-01-30T07:41:36;4.80;99.90
612;DHT22;293;53.888;11.464;2024-01-30T07:44:03;4.80;99.90
612;DHT22;293;53.888;11.464;2024-01-30T07:46:30;4.80;99.90
612;DHT22;293;53.888;11.464;2024-01-30T07:48:59;4.90;99.90
612;DHT22;293;53.888;11.464;2024-01-30T07:51:25;4.90;99.90
612;DHT22;293;53.888;11.464;2024-01-30T07:53:54;5.00;99.90
612;DHT22;293;53.888;11.464;2024-01-30T08:03:07;5.30;99.90
612;DHT22;293;53.888;11.464;2024-01-30T08:05:35;5.30;99.90
612;DHT22;293;53.888;11.464;2024-01-30T08:08:03;5.40;99.90
612;DHT22;293;53.888;11.464;2024-01-30T08:10:30;5.50;99.90
612;DHT22;293;53.888;11.464;2024-01-30T08:12:57;5.60;99.90
612;DHT22;293;53.888;11.464;2024-01-30T08:15:24;5.70;99.90
612;DHT22;293;53.888;11.464;2024-01-30T08:17:51;5.80;99.90
612;DHT22;293;53.888;11.464;2024-01-30T08:20:21;5.90;99.90
612;DHT22;293;53.888;11.464;2024-01-30T08:22:49;6.10;99.90
612;DHT22;293;53.888;11.464;2024-01-30T08:25:16;6.20;99.90
612;DHT22;293;53.888;11.464;2024-01-30T08:27:43;6.30;99.90
612;DHT22;293;53.888;11.464;2024-01-30T08:30:10;6.30;99.90
612;DHT22;293;53.888;11.464;2024-01-30T08:32:37;6.40;99.90
612;DHT22;293;53.888;11.464;2024-01-30T08:35:04;6.50;99.90
612;DHT22;293;53.888;11.464;2024-01-30T08:37:32;6.50;99.90
612;DHT22;293;53.888;11.464;2024-01-30T08:40:00;6.60;99.90
612;DHT22;293;53.888;11.464;2024-01-30T08:42:28;6.60;99.90
612;DHT22;293;53.888;11.464;2024-01-30T08:44:54;6.70;99.90
612;DHT22;293;53.888;11.464;2024-01-30T08:47:21;6.70;99.90
612;DHT22;293;53.888;11.464;2024-01-30T08:49:48;6.80;99.90
612;DHT22;293;53.888;11.464;2024-01-30T08:52:15;6.90;99.90
612;DHT22;293;53.888;11.464;2024-01-30T08:54:42;7.00;99.90
612;DHT22;293;53.888;11.464;2024-01-30T08:57:10;7.10;99.90
612;DHT22;293;53.888;11.464;2024-01-30T08:59:37;7.20;99.90
612;DHT22;293;53.888;11.464;2024-01-30T09:02:04;7.20;99.90
612;DHT22;293;53.888;11.464;2024-01-30T09:04:31;7.30;99.90
612;DHT22;293;53.888;11.464;2024-01-30T09:06:58;7.30;99.90
612;DHT22;293;53.888;11.464;2024-01-30T09:09:24;7.30;99.90
612;DHT22;293;53.888;11.464;2024-01-30T09:11:51;7.40;99.90
612;DHT22;293;53.888;11.464;2024-01-30T09:14:19;7.50;99.90
612;DHT22;293;53.888;11.464;2024-01-30T09:16:46;7.50;99.90
612;DHT22;293;53.888;11.464;2024-01-30T09:19:14;7.60;99.90
612;DHT22;293;53.888;11.464;2024-01-30T09:21:41;7.70;99.90
612;DHT22;293;53.888;11.464;2024-01-30T09:24:08;7.70;99.90
612;DHT22;293;53.888;11.464;2024-01-30T09:26:35;7.70;99.90
612;DHT22;293;53.888;11.464;2024-01-30T09:29:01;7.80;99.90
612;DHT22;293;53.888;11.464;2024-01-30T09:31:30;7.80;99.90
612;DHT22;293;53.888;11.464;2024-01-30T09:33:57;7.90;99.90
612;DHT22;293;53.888;11.464;2024-01-30T09:36:24;7.90;99.90
612;DHT22;293;53.888;11.464;2024-01-30T09:38:51;8.00;99.90
612;DHT22;293;53.888;11.464;2024-01-30T09:41:19;8.00;99.90
612;DHT22;293;53.888;11.464;2024-01-30T09:43:48;8.00;99.90
612;DHT22;293;53.888;11.464;2024-01-30T09:46:17;8.00;99.90
612;DHT22;293;53.888;11.464;2024-01-30T09:48:47;8.00;99.90
612;DHT22;293;53.888;11.464;2024-01-30T09:51:14;8.00;99.90
612;DHT22;293;53.888;11.464;2024-01-30T09:53:42;8.10;99.90
612;DHT22;293;53.888;11.464;2024-01-30T09:56:10;8.20;99.90
612;DHT22;293;53.888;11.464;2024-01-30T09:58:37;8.20;99.90
612;DHT22;293;53.888;11.464;2024-01-30T10:01:05;8.20;99.90
612;DHT22;293;53.888;11.464;2024-01-30T10:03:32;8.20;99.90
612;DHT22;293;53.888;11.464;2024-01-30T10:06:01;8.30;99.90
612;DHT22;293;53.888;11.464;2024-01-30T10:08:28;8.30;99.90
612;DHT22;293;53.888;11.464;2024-01-30T10:10:55;8.30;99.90
612;DHT22;293;53.888;11.464;2024-01-30T10:13:22;8.40;99.90
612;DHT22;293;53.888;11.464;2024-01-30T10:15:49;8.40;99.90
612;DHT22;293;53.888;11.464;2024-01-30T10:18:17;8.40;99.90
612;DHT22;293;53.888;11.464;2024-01-30T10:20:45;8.50;99.90
612;DHT22;293;53.888;11.464;2024-01-30T10:23:14;8.50;99.90
612;DHT22;293;53.888;11.464;2024-01-30T10:25:41;8.60;99.90
612;DHT22;293;53.888;11.464;2024-01-30T10:28:07;8.70;99.90
612;DHT22;293;53.888;11.464;2024-01-30T10:30:34;8.80;99.90
612;DHT22;293;53.888;11.464;2024-01-30T10:33:02;8.90;99.90
612;DHT22;293;53.888;11.464;2024-01-30T10:35:29;8.90;99.90
612;DHT22;293;53.888;11.464;2024-01-30T10:37:57;9.00;99.90
612;DHT22;293;53.888;11.464;2024-01-30T10:40:28;9.00;99.90
612;DHT22;293;53.888;11.464;2024-01-30T10:42:55;9.10;99.90
612;DHT22;293;53.888;11.464;2024-01-30T10:45:22;9.00;99.90
612;DHT22;293;53.888;11.464;2024-01-30T10:47:50;9.10;99.90
612;DHT22;293;53.888;11.464;2024-01-30T10:50:20;9.10;99.90
612;DHT22;293;53.888;11.464;2024-01-30T10:52:47;9.10;99.90
612;DHT22;293;53.888;11.464;2024-01-30T10:55:16;9.10;99.90
612;DHT22;293;53.888;11.464;2024-01-30T10:57:45;9.20;99.90
612;DHT22;293;53.888;11.464;2024-01-30T11:00:15;9.30;99.90
612;DHT22;293;53.888;11.464;2024-01-30T11:02:44;9.30;99.90
612;DHT22;293;53.888;11.464;2024-01-30T11:05:12;9.30;99.90
612;DHT22;293;53.888;11.464;2024-01-30T11:07:41;9.40;99.90
612;DHT22;293;53.888;11.464;2024-01-30T11:10:08;9.40;99.90
612;DHT22;293;53.888;11.464;2024-01-30T11:12:39;9.50;99.90
612;DHT22;293;53.888;11.464;2024-01-30T11:15:12;9.50;99.90
612;DHT22;293;53.888;11.464;2024-01-30T11:17:43;9.50;99.90
612;DHT22;293;53.888;11.464;2024-01-30T11:20:11;9.60;99.90
612;DHT22;293;53.888;11.464;2024-01-30T11:22:41;9.60;99.90
612;DHT22;293;53.888;11.464;2024-01-30T11:25:11;9.70;99.90
612;DHT22;293;53.888;11.464;2024-01-30T11:27:39;9.70;99.90
612;DHT22;293;53.888;11.464;2024-01-30T11:30:07;9.80;99.90
612;DHT22;293;53.888;11.464;2024-01-30T11:32:35;9.80;99.90
612;DHT22;293;53.888;11.464;2024-01-30T11:35:04;9.80;99.90
612;DHT22;293;53.888;11.464;2024-01-30T11:37:32;9.90;99.90
612;DHT22;293;53.888;11.464;2024-01-30T11:40:04;9.90;99.90
612;DHT22;293;53.888;11.464;2024-01-30T11:42:32;9.90;99.90
612;DHT22;293;53.888;11.464;2024-01-30T11:45:00;9.90;99.90
612;DHT22;293;53.888;11.464;2024-01-30T11:47:28;9.90;99.90
612;DHT22;293;53.888;11.464;2024-01-30T11:49:56;9.90;99.90
612;DHT22;293;53.888;11.464;2024-01-30T11:52:23;9.90;99.90
612;DHT22;293;53.888;11.464;2024-01-30T11:54:50;9.90;99.90
612;DHT22;293;53.888;11.464;2024-01-30T11:57:17;9.90;99.90
612;DHT22;293;53.888;11.464;2024-01-30T11:59:44;9.90;99.90
612;DHT22;293;53.888;11.464;2024-01-30T12:02:15;9.90;99.90
612;DHT22;293;53.888;11.464;2024-01-30T12:04:42;9.90;99.90
612;DHT22;293;53.888;11.464;2024-01-30T12:07:11;10.00;99.90
612;DHT22;293;53.888;11.464;2024-01-30T12:09:38;10.00;99.90
612;DHT22;293;53.888;11.464;2024-01-30T12:12:07;10.00;99.90
612;DHT22;293;53.888;11.464;2024-01-30T12:14:37;10.00;99.90
612;DHT22;293;53.888;11.464;2024-01-30T12:17:05;10.10;99.90
612;DHT22;293;53.888;11.464;2024-01-30T12:19:33;10.10;99.90
612;DHT22;293;53.888;11.464;2024-01-30T12:22:00;10.10;99.90
612;DHT22;293;53.888;11.464;2024-01-30T12:24:28;10.00;99.90
612;DHT22;293;53.888;11.464;2024-01-30T12:26:57;10.10;99.90
612;DHT22;293;53.888;11.464;2024-01-30T12:29:24;10.10;99.90
612;DHT22;293;53.888;11.464;2024-01-30T12:31:53;10.00;99.90
612;DHT22;293;53.888;11.464;2024-01-30T12:34:20;10.10;99.90
612;DHT22;293;53.888;11.464;2024-01-30T12:36:47;10.10;99.90
612;DHT22;293;53.888;11.464;2024-01-30T12:39:15;10.00;99.90
612;DHT22;293;53.888;11.464;2024-01-30T12:41:43;10.10;99.90
612;DHT22;293;53.888;11.464;2024-01-30T12:44:10;10.10;99.90
612;DHT22;293;53.888;11.464;2024-01-30T12:46:37;10.10;99.90
612;DHT22;293;53.888;11.464;2024-01-30T12:49:04;10.10;99.90
612;DHT22;293;53.888;11.464;2024-01-30T12:51:34;10.10;99.90
612;DHT22;293;53.888;11.464;2024-01-30T12:54:05;10.10;99.90
612;DHT22;293;53.888;11.464;2024-01-30T12:56:32;10.20;99.90
612;DHT22;293;53.888;11.464;2024-01-30T12:59:00;10.20;99.90
612;DHT22;293;53.888;11.464;2024-01-30T13:01:27;10.20;99.90
612;DHT22;293;53.888;11.464;2024-01-30T13:03:54;10.20;99.90
612;DHT22;293;53.888;11.464;2024-01-30T13:06:22;10.20;99.90
612;DHT22;293;53.888;11.464;2024-01-30T13:08:49;10.20;99.90
612;DHT22;293;53.888;11.464;2024-01-30T13:11:16;10.20;99.90
612;DHT22;293;53.888;11.464;2024-01-30T13:13:43;10.20;99.90
612;DHT22;293;53.888;11.464;2024-01-30T13:16:11;10.20;99.90
612;DHT22;293;53.888;11.464;2024-01-30T13:18:38;10.20;99.90
612;DHT22;293;53.888;11.464;2024-01-30T13:21:05;10.20;99.90
612;DHT22;293;53.888;11.464;2024-01-30T13:23:32;10.20;99.90
612;DHT22;293;53.888;11.464;2024-01-30T13:25:59;10.20;99.90
612;DHT22;293;53.888;11.464;2024-01-30T13:28:26;10.20;99.90
612;DHT22;293;53.888;11.464;2024-01-30T13:30:53;10.30;99.90
612;DHT22;293;53.888;11.464;2024-01-30T13:33:21;10.30;99.90
612;DHT22;293;53.888;11.464;2024-01-30T13:35:48;10.20;99.90
612;DHT22;293;53.888;11.464;2024-01-30T13:38:15;10.20;99.90
612;DHT22;293;53.888;11.464;2024-01-30T13:40:42;10.20;99.90
612;DHT22;293;53.888;11.464;2024-01-30T13:43:09;10.30;99.90
612;DHT22;293;53.888;11.464;2024-01-30T13:45:36;10.30;99.90
612;DHT22;293;53.888;11.464;2024-01-30T13:48:03;10.30;99.90
612;DHT22;293;53.888;11.464;2024-01-30T13:50:31;10.30;99.90
612;DHT22;293;53.888;11.464;2024-01-30T13:52:59;10.30;99.90
612;DHT22;293;53.888;11.464;2024-01-30T13:55:26;10.30;99.90
612;DHT22;293;53.888;11.464;2024-01-30T13:57:53;10.30;99.90
612;DHT22;293;53.888;11.464;2024-01-30T14:00:21;10.30;99.90
612;DHT22;293;53.888;11.464;2024-01-30T14:02:48;10.30;99.90
612;DHT22;293;53.888;11.464;2024-01-30T14:05:15;10.30;99.90
612;DHT22;293;53.888;11.464;2024-01-30T14:07:44;10.20;99.90
612;DHT22;293;53.888;11.464;2024-01-30T14:10:11;10.20;99.90
612;DHT22;293;53.888;11.464;2024-01-30T14:12:38;10.20;99.90
612;DHT22;293;53.888;11.464;2024-01-30T14:15:07;10.20;99.90
612;DHT22;293;53.888;11.464;2024-01-30T14:17:35;10.30;99.90
612;DHT22;293;53.888;11.464;2024-01-30T14:20:02;10.30;99.90
612;DHT22;293;53.888;11.464;2024-01-30T14:22:29;10.30;99.90
612;DHT22;293;53.888;11.464;2024-01-30T14:24:57;10.20;99.90
612;DHT22;293;53.888;11.464;2024-01-30T14:27:24;10.20;99.90
612;DHT22;293;53.888;11.464;2024-01-30T14:29:51;10.20;99.90
612;DHT22;293;53.888;11.464;2024-01-30T14:32:18;10.20;99.90
612;DHT22;293;53.888;11.464;2024-01-30T14:34:45;10.20;99.90
612;DHT22;293;53.888;11.464;2024-01-30T14:37:12;10.20;99.90
612;DHT22;293;53.888;11.464;2024-01-30T14:39:39;10.10;99.90
612;DHT22;293;53.888;11.464;2024-01-30T14:42:08;10.10;99.90
612;DHT22;293;53.888;11.464;2024-01-30T14:44:35;10.20;99.90
612;DHT22;293;53.888;11.464;2024-01-30T14:47:02;10.20;99.90
612;DHT22;293;53.888;11.464;2024-01-30T14:49:30;10.20;99.90
612;DHT22;293;53.888;11.464;2024-01-30T14:51:56;10.20;99.90
612;DHT22;293;53.888;11.464;2024-01-30T14:54:24;10.20;99.90
612;DHT22;293;53.888;11.464;2024-01-30T14:56:51;10.20;99.90
612;DHT22;293;53.888;11.464;2024-01-30T14:59:19;10.20;99.90
612;DHT22;293;53.888;11.464;2024-01-30T15:01:46;10.20;99.90
612;DHT22;293;53.888;11.464;2024-01-30T15:04:14;10.20;99.90
612;DHT22;293;53.888;11.464;2024-01-30T15:06:41;10.20;99.90
612;DHT22;293;53.888;11.464;2024-01-30T15:09:11;10.20;99.90
612;DHT22;293;53.888;11.464;2024-01-30T15:11:40;10.20;99.90
612;DHT22;293;53.888;11.464;2024-01-30T15:14:07;10.20;99.90
612;DHT22;293;53.888;11.464;2024-01-30T15:16:35;10.10;99.90
612;DHT22;293;53.888;11.464;2024-01-30T15:19:02;10.10;99.90
612;DHT22;293;53.888;11.464;2024-01-30T15:21:30;10.10;99.90
612;DHT22;293;53.888;11.464;2024-01-30T15:23:57;10.10;99.90
612;DHT22;293;53.888;11.464;2024-01-30T15:26:24;10.10;99.90
612;DHT22;293;53.888;11.464;2024-01-30T15:28:51;10.10;99.90
612;DHT22;293;53.888;11.464;2024-01-30T15:31:18;10.10;99.90
612;DHT22;293;53.888;11.464;2024-01-30T15:33:47;10.10;99.90
612;DHT22;293;53.888;11.464;2024-01-30T15:36:14;10.10;99.90
612;DHT22;293;53.888;11.464;2024-01-30T15:38:41;10.10;99.90
612;DHT22;293;53.888;11.464;2024-01-30T15:41:08;10.10;99.90
612;DHT22;293;53.888;11.464;2024-01-30T15:43:35;10.10;99.90
612;DHT22;293;53.888;11.464;2024-01-30T15:46:02;10.10;99.90
612;DHT22;293;53.888;11.464;2024-01-30T15:48:29;10.10;99.90
612;DHT22;293;53.888;11.464;2024-01-30T15:50:58;10.10;99.90
612;DHT22;293;53.888;11.464;2024-01-30T15:53:26;10.10;99.90
612;DHT22;293;53.888;11.464;2024-01-30T15:55:53;10.10;99.90
612;DHT22;293;53.888;11.464;2024-01-30T15:58:20;10.00;99.90
612;DHT22;293;53.888;11.464;2024-01-30T16:00:47;10.00;99.90
612;DHT22;293;53.888;11.464;2024-01-30T16:03:14;10.00;99.90
612;DHT22;293;53.888;11.464;2024-01-30T16:05:41;10.00;99.90
612;DHT22;293;53.888;11.464;2024-01-30T16:08:09;10.00;99.90
612;DHT22;293;53.888;11.464;2024-01-30T16:10:36;10.10;99.90
612;DHT22;293;53.888;11.464;2024-01-30T16:13:03;10.10;99.90
612;DHT22;293;53.888;11.464;2024-01-30T16:15:30;10.00;99.90
612;DHT22;293;53.888;11.464;2024-01-30T16:17:57;10.10;99.90
612;DHT22;293;53.888;11.464;2024-01-30T16:20:24;10.10;99.90
612;DHT22;293;53.888;11.464;2024-01-30T16:22:51;10.00;99.90
612;DHT22;293;53.888;11.464;2024-01-30T16:25:20;10.00;99.90
612;DHT22;293;53.888;11.464;2024-01-30T16:27:48;10.00;99.90
612;DHT22;293;53.888;11.464;2024-01-30T16:30:15;10.00;99.90
612;DHT22;293;53.888;11.464;2024-01-30T16:32:43;10.00;99.90
612;DHT22;293;53.888;11.464;2024-01-30T16:35:10;10.10;99.90
612;DHT22;293;53.888;11.464;2024-01-30T16:37:37;10.10;99.90